Pagrindinis puslapis
METAR-TAF:

METAR-TAF

Oro uostai :

Sveg, Švedija

platuma: 62-02-52N, ilguma: 014-25-22E, Aukštis: 359 m

Dabartinis oras

Ataskaita buvo paskelbta 32 minutes, ne 08:50 UTC
Vėjas 9 kt iš Vakarų/Pietvakarių, svyruoja nuo Pietvakarių ir Vakarų/Šiaurės Vakarų
Temperatūra 2°C
Drėgmė 75%
Slėgis 984 hPa
Matomumas 10 km arba daugiau
nėra debesų žemiau 1500 m ir nėra kamuolinių lietaus debesų

METAR: ESND 180850Z 25009KT 220V290 CAVOK 02/M02 Q0984

Laikas: 10:22 (09:22 UTC)


TAF: trūkstamas

Orai ataskaitas ir orų prognozės (METAR, TAF).

turimą stotys yra geltonos ir raudonos taškus žemėlapyje.

Perkelti pele per norėdami pamatyti stoties vardą.

Tada spustelėkite, norėdami matyti oro stebėjimo ir prognozės.

Norėdami pakeisti žemėlapį: spustelėkite ant žalios mygtukų su juodo kryžiaus žemyn,; žalią mygtuką su brūkšneliu, jei norite nutolinti; arba žalių rodyklių gretimoms žemėlapius.


METAR-TAF: